sensor_id;sensor_type;location;lat;lon;timestamp;temperature;humidity
35746;DHT22;21870;42.812;74.628;2023-01-10T00:00:40;2.30;99.90
35746;DHT22;21870;42.812;74.628;2023-01-10T00:03:08;2.40;99.90
35746;DHT22;21870;42.812;74.628;2023-01-10T00:05:36;2.50;99.90
35746;DHT22;21870;42.812;74.628;2023-01-10T00:08:03;2.50;99.90
35746;DHT22;21870;42.812;74.628;2023-01-10T00:10:33;2.60;99.90
35746;DHT22;21870;42.812;74.628;2023-01-10T00:12:59;2.50;99.90
35746;DHT22;21870;42.812;74.628;2023-01-10T00:15:44;2.60;99.90
35746;DHT22;21870;42.812;74.628;2023-01-10T00:18:11;2.50;99.90
35746;DHT22;21870;42.812;74.628;2023-01-10T00:20:37;2.50;99.90
35746;DHT22;21870;42.812;74.628;2023-01-10T00:23:03;2.40;99.90
35746;DHT22;21870;42.812;74.628;2023-01-10T00:25:30;2.50;99.90
35746;DHT22;21870;42.812;74.628;2023-01-10T00:27:58;2.50;99.90
35746;DHT22;21870;42.812;74.628;2023-01-10T00:30:30;2.30;99.90
35746;DHT22;21870;42.812;74.628;2023-01-10T00:32:58;2.30;99.90
35746;DHT22;21870;42.812;74.628;2023-01-10T00:35:24;2.30;99.90
35746;DHT22;21870;42.812;74.628;2023-01-10T00:37:51;2.30;99.90
35746;DHT22;21870;42.812;74.628;2023-01-10T00:40:22;2.30;99.90
35746;DHT22;21870;42.812;74.628;2023-01-10T00:42:48;2.20;99.90
35746;DHT22;21870;42.812;74.628;2023-01-10T00:45:32;2.20;99.90
35746;DHT22;21870;42.812;74.628;2023-01-10T00:48:01;2.10;99.90
35746;DHT22;21870;42.812;74.628;2023-01-10T00:50:27;2.10;99.90
35746;DHT22;21870;42.812;74.628;2023-01-10T00:52:53;2.00;99.90
35746;DHT22;21870;42.812;74.628;2023-01-10T00:55:20;1.90;99.90
35746;DHT22;21870;42.812;74.628;2023-01-10T00:57:46;1.80;99.90
35746;DHT22;21870;42.812;74.628;2023-01-10T01:00:12;1.90;99.90
35746;DHT22;21870;42.812;74.628;2023-01-10T01:02:41;1.80;99.90
35746;DHT22;21870;42.812;74.628;2023-01-10T01:05:07;1.80;99.90
35746;DHT22;21870;42.812;74.628;2023-01-10T01:07:34;1.70;99.90
35746;DHT22;21870;42.812;74.628;2023-01-10T01:10:00;1.70;99.90
35746;DHT22;21870;42.812;74.628;2023-01-10T01:12:44;1.60;99.90
35746;DHT22;21870;42.812;74.628;2023-01-10T01:15:10;1.50;99.90
35746;DHT22;21870;42.812;74.628;2023-01-10T01:17:36;1.60;99.90
35746;DHT22;21870;42.812;74.628;2023-01-10T01:20:03;1.50;99.90
35746;DHT22;21870;42.812;74.628;2023-01-10T01:22:29;1.50;99.90
35746;DHT22;21870;42.812;74.628;2023-01-10T01:24:55;1.50;99.90
35746;DHT22;21870;42.812;74.628;2023-01-10T01:27:21;1.40;99.90
35746;DHT22;21870;42.812;74.628;2023-01-10T01:29:47;1.40;99.90
35746;DHT22;21870;42.812;74.628;2023-01-10T01:32:13;1.40;99.90
35746;DHT22;21870;42.812;74.628;2023-01-10T01:34:39;1.30;99.90
35746;DHT22;21870;42.812;74.628;2023-01-10T01:37:06;1.30;99.90
35746;DHT22;21870;42.812;74.628;2023-01-10T01:39:32;1.20;99.90
35746;DHT22;21870;42.812;74.628;2023-01-10T01:41:58;1.00;99.90
35746;DHT22;21870;42.812;74.628;2023-01-10T01:44:34;1.00;99.90
35746;DHT22;21870;42.812;74.628;2023-01-10T01:47:02;0.90;99.90
35746;DHT22;21870;42.812;74.628;2023-01-10T01:49:31;0.90;99.90
35746;DHT22;21870;42.812;74.628;2023-01-10T01:52:03;0.80;99.90
35746;DHT22;21870;42.812;74.628;2023-01-10T01:54:34;0.80;99.90
35746;DHT22;21870;42.812;74.628;2023-01-10T01:57:06;0.80;99.90
35746;DHT22;21870;42.812;74.628;2023-01-10T01:59:40;0.90;99.90
35746;DHT22;21870;42.812;74.628;2023-01-10T02:02:20;0.90;99.90
35746;DHT22;21870;42.812;74.628;2023-01-10T02:04:57;0.90;99.90
35746;DHT22;21870;42.812;74.628;2023-01-10T02:07:26;1.00;99.90
35746;DHT22;21870;42.812;74.628;2023-01-10T02:12:24;1.00;99.90
35746;DHT22;21870;42.812;74.628;2023-01-10T02:14:51;0.90;99.90
35746;DHT22;21870;42.812;74.628;2023-01-10T02:17:18;0.90;99.90
35746;DHT22;21870;42.812;74.628;2023-01-10T02:19:56;1.00;99.90
35746;DHT22;21870;42.812;74.628;2023-01-10T02:31:17;0.90;99.90
35746;DHT22;21870;42.812;74.628;2023-01-10T02:34:07;1.00;99.90
35746;DHT22;21870;42.812;74.628;2023-01-10T02:42:51;0.90;99.90
35746;DHT22;21870;42.812;74.628;2023-01-10T02:45:45;1.00;99.90
35746;DHT22;21870;42.812;74.628;2023-01-10T02:48:16;0.90;99.90
35746;DHT22;21870;42.812;74.628;2023-01-10T02:50:55;1.00;99.90
35746;DHT22;21870;42.812;74.628;2023-01-10T02:53:39;1.10;99.90
35746;DHT22;21870;42.812;74.628;2023-01-10T03:04:17;0.90;99.90
35746;DHT22;21870;42.812;74.628;2023-01-10T03:06:55;0.90;99.90
35746;DHT22;21870;42.812;74.628;2023-01-10T03:12:03;0.90;99.90
35746;DHT22;21870;42.812;74.628;2023-01-10T03:14:35;0.90;99.90
35746;DHT22;21870;42.812;74.628;2023-01-10T03:17:06;0.90;99.90
35746;DHT22;21870;42.812;74.628;2023-01-10T03:19:37;1.00;99.90
35746;DHT22;21870;42.812;74.628;2023-01-10T03:22:07;1.00;99.90
35746;DHT22;21870;42.812;74.628;2023-01-10T03:24:37;1.00;99.90
35746;DHT22;21870;42.812;74.628;2023-01-10T03:27:23;1.10;99.90
35746;DHT22;21870;42.812;74.628;2023-01-10T03:32:50;1.00;99.90
35746;DHT22;21870;42.812;74.628;2023-01-10T03:35:19;1.10;99.90
35746;DHT22;21870;42.812;74.628;2023-01-10T03:38:08;1.30;99.90
35746;DHT22;21870;42.812;74.628;2023-01-10T03:40:42;1.30;99.90
35746;DHT22;21870;42.812;74.628;2023-01-10T03:43:18;1.30;99.90
35746;DHT22;21870;42.812;74.628;2023-01-10T03:46:11;1.30;99.90
35746;DHT22;21870;42.812;74.628;2023-01-10T03:48:44;1.30;99.90
35746;DHT22;21870;42.812;74.628;2023-01-10T03:51:12;1.40;99.90
35746;DHT22;21870;42.812;74.628;2023-01-10T03:53:39;1.50;99.90
35746;DHT22;21870;42.812;74.628;2023-01-10T03:56:06;1.50;99.90
35746;DHT22;21870;42.812;74.628;2023-01-10T03:58:32;1.50;99.90
35746;DHT22;21870;42.812;74.628;2023-01-10T04:00:58;1.60;99.90
35746;DHT22;21870;42.812;74.628;2023-01-10T04:03:24;1.60;99.90
35746;DHT22;21870;42.812;74.628;2023-01-10T04:05:50;1.50;99.90
35746;DHT22;21870;42.812;74.628;2023-01-10T04:08:17;1.50;99.90
35746;DHT22;21870;42.812;74.628;2023-01-10T04:10:43;1.50;99.90
35746;DHT22;21870;42.812;74.628;2023-01-10T04:13:09;1.60;99.90
35746;DHT22;21870;42.812;74.628;2023-01-10T04:15:35;1.40;99.90
35746;DHT22;21870;42.812;74.628;2023-01-10T04:18:01;1.40;99.90
35746;DHT22;21870;42.812;74.628;2023-01-10T04:20:27;1.30;99.90
35746;DHT22;21870;42.812;74.628;2023-01-10T04:22:53;1.20;99.90
35746;DHT22;21870;42.812;74.628;2023-01-10T04:25:20;1.10;99.90
35746;DHT22;21870;42.812;74.628;2023-01-10T04:27:51;1.00;99.90
35746;DHT22;21870;42.812;74.628;2023-01-10T04:30:18;1.00;99.90
35746;DHT22;21870;42.812;74.628;2023-01-10T04:32:44;0.70;99.90
35746;DHT22;21870;42.812;74.628;2023-01-10T04:35:11;0.60;99.90
35746;DHT22;21870;42.812;74.628;2023-01-10T04:37:37;0.40;99.90
35746;DHT22;21870;42.812;74.628;2023-01-10T04:40:04;0.30;99.90
35746;DHT22;21870;42.812;74.628;2023-01-10T04:42:30;0.20;99.90
35746;DHT22;21870;42.812;74.628;2023-01-10T04:44:56;0.20;99.90
35746;DHT22;21870;42.812;74.628;2023-01-10T04:47:22;0.20;99.90
35746;DHT22;21870;42.812;74.628;2023-01-10T04:49:48;0.10;99.90
35746;DHT22;21870;42.812;74.628;2023-01-10T04:52:14;0.00;99.90
35746;DHT22;21870;42.812;74.628;2023-01-10T04:54:41;-0.10;99.90
35746;DHT22;21870;42.812;74.628;2023-01-10T04:57:07;-0.20;99.90
35746;DHT22;21870;42.812;74.628;2023-01-10T04:59:33;-0.30;99.90
35746;DHT22;21870;42.812;74.628;2023-01-10T05:01:59;-0.20;99.90
35746;DHT22;21870;42.812;74.628;2023-01-10T05:04:25;-0.30;99.90
35746;DHT22;21870;42.812;74.628;2023-01-10T05:06:51;-0.40;99.90
35746;DHT22;21870;42.812;74.628;2023-01-10T05:09:17;-0.20;99.90
35746;DHT22;21870;42.812;74.628;2023-01-10T05:11:43;-0.20;99.90
35746;DHT22;21870;42.812;74.628;2023-01-10T05:14:09;-0.20;99.90
35746;DHT22;21870;42.812;74.628;2023-01-10T05:16:35;-0.10;99.90
35746;DHT22;21870;42.812;74.628;2023-01-10T05:19:04;-0.10;99.90
35746;DHT22;21870;42.812;74.628;2023-01-10T05:21:30;-0.20;99.90
35746;DHT22;21870;42.812;74.628;2023-01-10T05:23:56;-0.20;99.90
35746;DHT22;21870;42.812;74.628;2023-01-10T05:26:23;-0.30;99.90
35746;DHT22;21870;42.812;74.628;2023-01-10T05:28:49;-0.30;99.90
35746;DHT22;21870;42.812;74.628;2023-01-10T05:31:17;-0.40;99.90
35746;DHT22;21870;42.812;74.628;2023-01-10T05:33:49;-0.40;99.90
35746;DHT22;21870;42.812;74.628;2023-01-10T05:36:16;-0.50;99.90
35746;DHT22;21870;42.812;74.628;2023-01-10T05:38:42;-0.40;99.90
35746;DHT22;21870;42.812;74.628;2023-01-10T05:41:08;-0.40;99.90
35746;DHT22;21870;42.812;74.628;2023-01-10T05:43:34;-0.40;99.90
35746;DHT22;21870;42.812;74.628;2023-01-10T05:46:01;-0.50;99.90
35746;DHT22;21870;42.812;74.628;2023-01-10T05:48:27;-0.40;99.90
35746;DHT22;21870;42.812;74.628;2023-01-10T05:50:53;-0.40;99.90
35746;DHT22;21870;42.812;74.628;2023-01-10T05:53:19;-0.40;99.90
35746;DHT22;21870;42.812;74.628;2023-01-10T05:55:56;-0.30;99.90
35746;DHT22;21870;42.812;74.628;2023-01-10T05:58:23;-0.20;99.90
35746;DHT22;21870;42.812;74.628;2023-01-10T06:00:50;-0.20;99.90
35746;DHT22;21870;42.812;74.628;2023-01-10T06:03:16;-0.30;99.90
35746;DHT22;21870;42.812;74.628;2023-01-10T06:05:42;-0.30;99.90
35746;DHT22;21870;42.812;74.628;2023-01-10T06:08:09;-0.40;99.90
35746;DHT22;21870;42.812;74.628;2023-01-10T06:10:35;-0.80;99.90
35746;DHT22;21870;42.812;74.628;2023-01-10T06:13:01;-0.80;99.90
35746;DHT22;21870;42.812;74.628;2023-01-10T06:15:27;-0.90;99.90
35746;DHT22;21870;42.812;74.628;2023-01-10T06:17:53;-1.00;99.90
35746;DHT22;21870;42.812;74.628;2023-01-10T06:20:19;-1.10;99.90
35746;DHT22;21870;42.812;74.628;2023-01-10T06:22:45;-1.10;99.90
35746;DHT22;21870;42.812;74.628;2023-01-10T06:25:13;-1.20;99.90
35746;DHT22;21870;42.812;74.628;2023-01-10T06:27:40;-1.20;99.90
35746;DHT22;21870;42.812;74.628;2023-01-10T06:30:08;-1.10;99.90
35746;DHT22;21870;42.812;74.628;2023-01-10T06:32:35;-1.20;99.90
35746;DHT22;21870;42.812;74.628;2023-01-10T06:35:01;-1.20;99.90
35746;DHT22;21870;42.812;74.628;2023-01-10T06:37:27;-1.30;99.90
35746;DHT22;21870;42.812;74.628;2023-01-10T06:39:53;-1.30;99.90
35746;DHT22;21870;42.812;74.628;2023-01-10T06:42:19;-1.30;99.90
35746;DHT22;21870;42.812;74.628;2023-01-10T06:44:45;-1.20;99.90
35746;DHT22;21870;42.812;74.628;2023-01-10T06:47:11;-1.20;99.90
35746;DHT22;21870;42.812;74.628;2023-01-10T06:49:37;-1.20;99.90
35746;DHT22;21870;42.812;74.628;2023-01-10T06:52:03;-1.10;99.90
35746;DHT22;21870;42.812;74.628;2023-01-10T06:54:30;-1.20;99.90
35746;DHT22;21870;42.812;74.628;2023-01-10T06:56:56;-1.30;99.90
35746;DHT22;21870;42.812;74.628;2023-01-10T06:59:22;-1.40;99.90
35746;DHT22;21870;42.812;74.628;2023-01-10T07:01:48;-1.50;99.90
35746;DHT22;21870;42.812;74.628;2023-01-10T07:04:14;-1.50;99.90
35746;DHT22;21870;42.812;74.628;2023-01-10T07:06:40;-1.50;99.90
35746;DHT22;21870;42.812;74.628;2023-01-10T07:09:07;-1.60;99.90
35746;DHT22;21870;42.812;74.628;2023-01-10T07:11:34;-1.60;99.90
35746;DHT22;21870;42.812;74.628;2023-01-10T07:14:01;-1.60;99.90
35746;DHT22;21870;42.812;74.628;2023-01-10T07:16:27;-1.70;99.90
35746;DHT22;21870;42.812;74.628;2023-01-10T07:18:53;-1.60;99.90
35746;DHT22;21870;42.812;74.628;2023-01-10T07:21:20;-1.50;99.90
35746;DHT22;21870;42.812;74.628;2023-01-10T07:23:49;-1.50;99.90
35746;DHT22;21870;42.812;74.628;2023-01-10T07:26:16;-1.50;99.90
35746;DHT22;21870;42.812;74.628;2023-01-10T07:28:46;-1.50;99.90
35746;DHT22;21870;42.812;74.628;2023-01-10T07:31:12;-1.40;99.90
35746;DHT22;21870;42.812;74.628;2023-01-10T07:33:39;-1.40;99.90
35746;DHT22;21870;42.812;74.628;2023-01-10T07:36:05;-1.30;99.90
35746;DHT22;21870;42.812;74.628;2023-01-10T07:38:32;-1.20;99.90
35746;DHT22;21870;42.812;74.628;2023-01-10T07:41:00;-1.20;99.90
35746;DHT22;21870;42.812;74.628;2023-01-10T07:43:27;-1.30;99.90
35746;DHT22;21870;42.812;74.628;2023-01-10T07:45:53;-1.20;99.90
35746;DHT22;21870;42.812;74.628;2023-01-10T07:48:19;-1.10;99.90
35746;DHT22;21870;42.812;74.628;2023-01-10T07:50:45;-1.00;99.90
35746;DHT22;21870;42.812;74.628;2023-01-10T07:53:12;-1.00;99.90
35746;DHT22;21870;42.812;74.628;2023-01-10T07:55:38;-0.80;99.90
35746;DHT22;21870;42.812;74.628;2023-01-10T07:58:05;-0.80;99.90
35746;DHT22;21870;42.812;74.628;2023-01-10T08:00:33;-0.80;99.90
35746;DHT22;21870;42.812;74.628;2023-01-10T08:02:59;-0.80;99.90
35746;DHT22;21870;42.812;74.628;2023-01-10T08:05:25;-0.80;99.90
35746;DHT22;21870;42.812;74.628;2023-01-10T08:07:51;-0.80;99.90
35746;DHT22;21870;42.812;74.628;2023-01-10T08:10:18;-0.70;99.90
35746;DHT22;21870;42.812;74.628;2023-01-10T08:12:44;-0.70;99.90
35746;DHT22;21870;42.812;74.628;2023-01-10T08:15:12;-0.60;99.90
35746;DHT22;21870;42.812;74.628;2023-01-10T08:17:39;-0.70;99.90
35746;DHT22;21870;42.812;74.628;2023-01-10T08:20:06;-0.80;99.90
35746;DHT22;21870;42.812;74.628;2023-01-10T08:22:32;-0.80;99.90
35746;DHT22;21870;42.812;74.628;2023-01-10T08:24:58;-0.70;99.90
35746;DHT22;21870;42.812;74.628;2023-01-10T08:27:24;-0.80;99.90
35746;DHT22;21870;42.812;74.628;2023-01-10T08:29:50;-0.90;99.90
35746;DHT22;21870;42.812;74.628;2023-01-10T08:32:16;-1.00;99.90
35746;DHT22;21870;42.812;74.628;2023-01-10T08:34:42;-1.10;99.90
35746;DHT22;21870;42.812;74.628;2023-01-10T08:37:11;-1.10;99.90
35746;DHT22;21870;42.812;74.628;2023-01-10T08:39:38;-1.10;99.90
35746;DHT22;21870;42.812;74.628;2023-01-10T08:42:04;-1.10;99.90
35746;DHT22;21870;42.812;74.628;2023-01-10T08:44:33;-1.00;99.90
35746;DHT22;21870;42.812;74.628;2023-01-10T08:46:59;-1.10;99.90
35746;DHT22;21870;42.812;74.628;2023-01-10T08:49:25;-1.10;99.90
35746;DHT22;21870;42.812;74.628;2023-01-10T08:51:51;-1.00;99.90
35746;DHT22;21870;42.812;74.628;2023-01-10T08:54:18;-1.00;99.90
35746;DHT22;21870;42.812;74.628;2023-01-10T08:56:44;-1.00;99.90
35746;DHT22;21870;42.812;74.628;2023-01-10T08:59:10;-0.90;99.90
35746;DHT22;21870;42.812;74.628;2023-01-10T09:01:36;-0.80;99.90
35746;DHT22;21870;42.812;74.628;2023-01-10T09:04:02;-0.70;99.90
35746;DHT22;21870;42.812;74.628;2023-01-10T09:06:28;-0.70;99.90
35746;DHT22;21870;42.812;74.628;2023-01-10T09:08:54;-0.60;99.90
35746;DHT22;21870;42.812;74.628;2023-01-10T09:11:20;-0.80;99.90
35746;DHT22;21870;42.812;74.628;2023-01-10T09:13:49;-1.00;99.90
35746;DHT22;21870;42.812;74.628;2023-01-10T09:16:16;-1.10;99.90
35746;DHT22;21870;42.812;74.628;2023-01-10T09:18:43;-1.20;99.90
35746;DHT22;21870;42.812;74.628;2023-01-10T09:21:09;-1.20;99.90
35746;DHT22;21870;42.812;74.628;2023-01-10T09:23:35;-1.10;99.90
35746;DHT22;21870;42.812;74.628;2023-01-10T09:26:01;-1.00;99.90
35746;DHT22;21870;42.812;74.628;2023-01-10T09:28:28;-0.90;99.90
35746;DHT22;21870;42.812;74.628;2023-01-10T09:30:54;-1.10;99.90
35746;DHT22;21870;42.812;74.628;2023-01-10T09:33:20;-1.00;99.90
35746;DHT22;21870;42.812;74.628;2023-01-10T09:35:46;-1.00;99.90
35746;DHT22;21870;42.812;74.628;2023-01-10T09:38:15;-1.00;99.90
35746;DHT22;21870;42.812;74.628;2023-01-10T09:41:02;-0.90;99.90
35746;DHT22;21870;42.812;74.628;2023-01-10T09:43:40;-0.90;99.90
35746;DHT22;21870;42.812;74.628;2023-01-10T09:46:45;-0.90;99.90
35746;DHT22;21870;42.812;74.628;2023-01-10T09:51:52;-1.10;99.90
35746;DHT22;21870;42.812;74.628;2023-01-10T09:55:10;-1.00;99.90
35746;DHT22;21870;42.812;74.628;2023-01-10T09:57:20;-1.00;99.90
35746;DHT22;21870;42.812;74.628;2023-01-10T09:59:48;-1.00;99.90
35746;DHT22;21870;42.812;74.628;2023-01-10T10:02:38;-1.00;99.90
35746;DHT22;21870;42.812;74.628;2023-01-10T10:05:15;-1.20;99.90
35746;DHT22;21870;42.812;74.628;2023-01-10T10:07:43;-1.20;99.90
35746;DHT22;21870;42.812;74.628;2023-01-10T10:10:21;-1.20;99.90
35746;DHT22;21870;42.812;74.628;2023-01-10T10:16:23;-1.40;99.90
35746;DHT22;21870;42.812;74.628;2023-01-10T10:26:57;-1.70;99.90
35746;DHT22;21870;42.812;74.628;2023-01-10T10:32:36;-1.90;99.90
35746;DHT22;21870;42.812;74.628;2023-01-10T10:35:14;-2.00;99.90
35746;DHT22;21870;42.812;74.628;2023-01-10T10:37:51;-2.20;99.90
35746;DHT22;21870;42.812;74.628;2023-01-10T10:40:21;-2.20;99.90
35746;DHT22;21870;42.812;74.628;2023-01-10T10:42:51;-2.10;99.90
35746;DHT22;21870;42.812;74.628;2023-01-10T10:45:34;-2.10;99.90
35746;DHT22;21870;42.812;74.628;2023-01-10T10:48:20;-2.10;99.90
35746;DHT22;21870;42.812;74.628;2023-01-10T10:53:35;-2.10;99.90
35746;DHT22;21870;42.812;74.628;2023-01-10T10:56:03;-2.30;99.90
35746;DHT22;21870;42.812;74.628;2023-01-10T10:58:29;-2.40;99.90
35746;DHT22;21870;42.812;74.628;2023-01-10T11:00:59;-2.60;99.90
35746;DHT22;21870;42.812;74.628;2023-01-10T11:03:39;-2.70;99.90
35746;DHT22;21870;42.812;74.628;2023-01-10T11:06:07;-2.70;99.90
35746;DHT22;21870;42.812;74.628;2023-01-10T11:08:36;-2.70;99.90
35746;DHT22;21870;42.812;74.628;2023-01-10T11:11:42;-2.70;99.90
35746;DHT22;21870;42.812;74.628;2023-01-10T11:14:12;-2.90;99.90
35746;DHT22;21870;42.812;74.628;2023-01-10T11:16:42;-2.90;99.90
35746;DHT22;21870;42.812;74.628;2023-01-10T11:19:23;-3.00;99.90
35746;DHT22;21870;42.812;74.628;2023-01-10T11:21:56;-3.00;99.90
35746;DHT22;21870;42.812;74.628;2023-01-10T11:24:33;-3.00;99.90
35746;DHT22;21870;42.812;74.628;2023-01-10T11:27:17;-2.90;99.90
35746;DHT22;21870;42.812;74.628;2023-01-10T11:29:54;-2.90;99.90
35746;DHT22;21870;42.812;74.628;2023-01-10T11:32:36;-3.00;99.90
35746;DHT22;21870;42.812;74.628;2023-01-10T11:35:24;-3.00;99.90
35746;DHT22;21870;42.812;74.628;2023-01-10T11:38:03;-3.00;99.90
35746;DHT22;21870;42.812;74.628;2023-01-10T11:40:31;-3.00;99.90
35746;DHT22;21870;42.812;74.628;2023-01-10T11:42:58;-3.00;99.90
35746;DHT22;21870;42.812;74.628;2023-01-10T11:45:28;-3.00;99.90
35746;DHT22;21870;42.812;74.628;2023-01-10T11:47:59;-3.00;99.90
35746;DHT22;21870;42.812;74.628;2023-01-10T11:50:30;-3.10;99.90
35746;DHT22;21870;42.812;74.628;2023-01-10T11:52:57;-3.10;99.90
35746;DHT22;21870;42.812;74.628;2023-01-10T11:55:26;-3.10;99.90
35746;DHT22;21870;42.812;74.628;2023-01-10T11:58:28;-3.10;99.90
35746;DHT22;21870;42.812;74.628;2023-01-10T12:00:48;-3.10;99.90
35746;DHT22;21870;42.812;74.628;2023-01-10T12:06:16;-3.20;99.90
35746;DHT22;21870;42.812;74.628;2023-01-10T12:08:42;-3.20;99.90
35746;DHT22;21870;42.812;74.628;2023-01-10T12:11:24;-3.30;99.90
35746;DHT22;21870;42.812;74.628;2023-01-10T12:13:54;-3.30;99.90
35746;DHT22;21870;42.812;74.628;2023-01-10T12:16:27;-3.40;99.90
35746;DHT22;21870;42.812;74.628;2023-01-10T12:18:56;-3.50;99.90
35746;DHT22;21870;42.812;74.628;2023-01-10T12:21:43;-3.60;99.90
35746;DHT22;21870;42.812;74.628;2023-01-10T12:24:34;-3.70;99.90
35746;DHT22;21870;42.812;74.628;2023-01-10T12:27:04;-3.60;99.90
35746;DHT22;21870;42.812;74.628;2023-01-10T12:29:36;-3.50;99.90
35746;DHT22;21870;42.812;74.628;2023-01-10T12:32:06;-3.50;99.90
35746;DHT22;21870;42.812;74.628;2023-01-10T12:34:44;-3.40;99.90
35746;DHT22;21870;42.812;74.628;2023-01-10T12:37:23;-3.30;99.90
35746;DHT22;21870;42.812;74.628;2023-01-10T12:40:35;-3.40;99.90
35746;DHT22;21870;42.812;74.628;2023-01-10T12:43:16;-3.40;99.90
35746;DHT22;21870;42.812;74.628;2023-01-10T12:49:07;-3.40;99.90
35746;DHT22;21870;42.812;74.628;2023-01-10T12:51:38;-3.50;99.90
35746;DHT22;21870;42.812;74.628;2023-01-10T12:54:14;-3.50;99.90
35746;DHT22;21870;42.812;74.628;2023-01-10T12:56:41;-3.50;99.90
35746;DHT22;21870;42.812;74.628;2023-01-10T13:01:50;-3.60;99.90
35746;DHT22;21870;42.812;74.628;2023-01-10T13:04:20;-3.60;99.90
35746;DHT22;21870;42.812;74.628;2023-01-10T13:06:48;-3.60;99.90
35746;DHT22;21870;42.812;74.628;2023-01-10T13:09:23;-3.70;99.90
35746;DHT22;21870;42.812;74.628;2023-01-10T13:14:18;-3.60;99.90
35746;DHT22;21870;42.812;74.628;2023-01-10T13:17:24;-3.70;99.90
35746;DHT22;21870;42.812;74.628;2023-01-10T13:22:56;-3.70;99.90
35746;DHT22;21870;42.812;74.628;2023-01-10T13:25:32;-3.60;99.90
35746;DHT22;21870;42.812;74.628;2023-01-10T13:28:22;-3.70;99.90
35746;DHT22;21870;42.812;74.628;2023-01-10T13:31:25;-3.70;99.90
35746;DHT22;21870;42.812;74.628;2023-01-10T13:33:56;-3.60;99.90
35746;DHT22;21870;42.812;74.628;2023-01-10T13:36:38;-3.50;99.90
35746;DHT22;21870;42.812;74.628;2023-01-10T13:39:05;-3.40;99.90
35746;DHT22;21870;42.812;74.628;2023-01-10T13:55:49;-3.50;99.90
35746;DHT22;21870;42.812;74.628;2023-01-10T14:01:26;-3.60;99.90
35746;DHT22;21870;42.812;74.628;2023-01-10T14:06:57;-3.70;99.90
35746;DHT22;21870;42.812;74.628;2023-01-10T14:09:29;-3.70;99.90
35746;DHT22;21870;42.812;74.628;2023-01-10T14:12:01;-3.80;99.90
35746;DHT22;21870;42.812;74.628;2023-01-10T14:14:31;-3.80;99.90
35746;DHT22;21870;42.812;74.628;2023-01-10T14:17:18;-4.00;99.90
35746;DHT22;21870;42.812;74.628;2023-01-10T14:19:47;-4.00;99.90
35746;DHT22;21870;42.812;74.628;2023-01-10T14:22:30;-3.90;99.90
35746;DHT22;21870;42.812;74.628;2023-01-10T14:25:00;-3.90;99.90
35746;DHT22;21870;42.812;74.628;2023-01-10T14:27:49;-3.80;99.90
35746;DHT22;21870;42.812;74.628;2023-01-10T14:32:50;-3.80;99.90
35746;DHT22;21870;42.812;74.628;2023-01-10T14:35:20;-3.90;99.90
35746;DHT22;21870;42.812;74.628;2023-01-10T14:37:54;-3.80;99.90
35746;DHT22;21870;42.812;74.628;2023-01-10T14:40:35;-3.70;99.90
35746;DHT22;21870;42.812;74.628;2023-01-10T14:43:12;-3.70;99.90
35746;DHT22;21870;42.812;74.628;2023-01-10T14:45:50;-3.60;99.90
35746;DHT22;21870;42.812;74.628;2023-01-10T14:51:24;-3.60;99.90
35746;DHT22;21870;42.812;74.628;2023-01-10T14:54:02;-3.50;99.90
35746;DHT22;21870;42.812;74.628;2023-01-10T14:56:37;-3.60;99.90
35746;DHT22;21870;42.812;74.628;2023-01-10T14:59:31;-3.70;99.90
35746;DHT22;21870;42.812;74.628;2023-01-10T15:02:01;-3.70;99.90
35746;DHT22;21870;42.812;74.628;2023-01-10T15:04:32;-3.80;99.90
35746;DHT22;21870;42.812;74.628;2023-01-10T15:07:02;-3.80;99.90
35746;DHT22;21870;42.812;74.628;2023-01-10T15:09:34;-3.80;99.90
35746;DHT22;21870;42.812;74.628;2023-01-10T15:12:03;-3.90;99.90
35746;DHT22;21870;42.812;74.628;2023-01-10T15:14:30;-3.80;99.90
35746;DHT22;21870;42.812;74.628;2023-01-10T15:16:59;-3.80;99.90
35746;DHT22;21870;42.812;74.628;2023-01-10T15:19:34;-3.90;99.90
35746;DHT22;21870;42.812;74.628;2023-01-10T15:22:02;-3.80;99.90
35746;DHT22;21870;42.812;74.628;2023-01-10T15:24:34;-3.80;99.90
35746;DHT22;21870;42.812;74.628;2023-01-10T15:27:06;-3.80;99.90
35746;DHT22;21870;42.812;74.628;2023-01-10T15:29:33;-3.80;99.90
35746;DHT22;21870;42.812;74.628;2023-01-10T15:32:08;-3.90;99.90
35746;DHT22;21870;42.812;74.628;2023-01-10T15:34:36;-3.90;99.90
35746;DHT22;21870;42.812;74.628;2023-01-10T15:37:05;-3.90;99.90
35746;DHT22;21870;42.812;74.628;2023-01-10T15:39:38;-3.80;99.90
35746;DHT22;21870;42.812;74.628;2023-01-10T15:42:08;-3.80;99.90
35746;DHT22;21870;42.812;74.628;2023-01-10T15:44:42;-3.70;99.90
35746;DHT22;21870;42.812;74.628;2023-01-10T15:49:54;-3.70;99.90
35746;DHT22;21870;42.812;74.628;2023-01-10T15:52:21;-3.70;99.90
35746;DHT22;21870;42.812;74.628;2023-01-10T15:54:47;-3.80;99.90
35746;DHT22;21870;42.812;74.628;2023-01-10T15:57:24;-3.80;99.90
35746;DHT22;21870;42.812;74.628;2023-01-10T15:59:51;-3.80;99.90
35746;DHT22;21870;42.812;74.628;2023-01-10T16:02:31;-3.80;99.90
35746;DHT22;21870;42.812;74.628;2023-01-10T16:05:08;-3.70;99.90
35746;DHT22;21870;42.812;74.628;2023-01-10T16:07:42;-3.70;99.90
35746;DHT22;21870;42.812;74.628;2023-01-10T16:10:24;-3.70;99.90
35746;DHT22;21870;42.812;74.628;2023-01-10T16:12:52;-3.60;99.90
35746;DHT22;21870;42.812;74.628;2023-01-10T16:15:39;-3.70;99.90
35746;DHT22;21870;42.812;74.628;2023-01-10T16:18:08;-3.80;99.90
35746;DHT22;21870;42.812;74.628;2023-01-10T16:20:37;-4.00;99.90
35746;DHT22;21870;42.812;74.628;2023-01-10T16:23:05;-4.00;99.90
35746;DHT22;21870;42.812;74.628;2023-01-10T16:25:37;-4.00;99.90
35746;DHT22;21870;42.812;74.628;2023-01-10T16:28:04;-4.10;99.90
35746;DHT22;21870;42.812;74.628;2023-01-10T16:30:32;-4.10;99.90
35746;DHT22;21870;42.812;74.628;2023-01-10T16:33:08;-4.30;99.90
35746;DHT22;21870;42.812;74.628;2023-01-10T16:35:35;-4.30;99.90
35746;DHT22;21870;42.812;74.628;2023-01-10T16:38:01;-4.40;99.90
35746;DHT22;21870;42.812;74.628;2023-01-10T16:40:34;-4.40;99.90
35746;DHT22;21870;42.812;74.628;2023-01-10T16:43:02;-4.50;99.90
35746;DHT22;21870;42.812;74.628;2023-01-10T16:45:48;-4.70;99.90
35746;DHT22;21870;42.812;74.628;2023-01-10T16:48:15;-4.80;99.90
35746;DHT22;21870;42.812;74.628;2023-01-10T16:50:43;-4.90;99.90
35746;DHT22;21870;42.812;74.628;2023-01-10T16:53:14;-4.90;99.90
35746;DHT22;21870;42.812;74.628;2023-01-10T16:55:49;-4.90;99.90
35746;DHT22;21870;42.812;74.628;2023-01-10T16:58:17;-4.90;99.90
35746;DHT22;21870;42.812;74.628;2023-01-10T17:00:48;-4.90;99.90
35746;DHT22;21870;42.812;74.628;2023-01-10T17:03:23;-4.90;99.90
35746;DHT22;21870;42.812;74.628;2023-01-10T17:05:50;-5.00;99.90
35746;DHT22;21870;42.812;74.628;2023-01-10T17:08:21;-4.90;99.90
35746;DHT22;21870;42.812;74.628;2023-01-10T17:11:00;-5.00;99.90
35746;DHT22;21870;42.812;74.628;2023-01-10T17:13:32;-5.00;99.90
35746;DHT22;21870;42.812;74.628;2023-01-10T17:15:59;-5.00;99.90